Dunleary, Kentucky
Current Conditions -  °F | °C
As of 5:35 PM on Monday 22 Dec 2014 (Local Time) from KPBX Reporting Station
Clear Clear  
Wind Chill: 53°   Ceiling: Unl
Heat Index: 53°   Visibility: 10mi
Dew Point: 40°   Wind: 6mph
Humidity: 61%   Direction: 90°E
Pressure: 29.84"   Gusts: NA
Location:  37.3089°N, 82.3418°W
Report Text: KPBX 222235Z AUTO 09005KT 10SM CLR 12/05 A2984 RMK AO2 T01170045
Loading
Personal Weather Stations






























Interactive Weather Map New forecast layout! Learn more

10-Day Weather Forecast

Advertisements
Track Severe Weather on mobile